Terminal Aerodrome Forecast
Issued by NWS

Home | Current Version | Previous Version | Text Only | Print | Product List | Glossary On
Versions: 1 2 3 4 5 6 7 8 9 10 11 12 13 14 15 16 17 18 19 20 21 22 23 24 25 26 27 28
000
FTUS45 KLKN 060531
TAFEKO
TAF
KEKO 060531Z 0606/0706 09003KT P6SM BKN050
     FM061300 VRB06KT P6SM VCSH SCT020 BKN040
     FM061800 28014G22KT P6SM VCSH SCT015 OVC025
      TEMPO 0620/0624 2SM -SN BR BKN015
     FM070000 31004KT P6SM VCSH SCT025 BKN040
     FM070400 33003KT P6SM SCT050 BKN080=

USA.gov is the U.S. government's official web portal to all federal, state and local government web resources and services.